Home > Products > Valid Products > TAF

000
FTUS41 KRNK 282327
TAFBLF
TAF
KBLF 282327Z 2900/2924 08006KT P6SM VCTS SCT060CB BKN090
     FM290200 VRB03KT P6SM SCT050 BKN120
      TEMPO 2908/2912 4SM BR
     FM291400 21005KT P6SM BKN025
     FM291600 19006KT P6SM VCTS SCT050CB BKN090=



000
FTUS41 KRNK 282327
TAFDAN
TAF
KDAN 282327Z 2900/2924 36004KT P6SM VCTS SCT060CB BKN120
     FM290300 00000KT P6SM FEW080 BKN120
     FM290800 00000KT 3SM BR BKN003
     FM291400 17004KT P6SM SCT025
     FM292000 18006KT P6SM VCTS SCT050CB BKN120=



000
FTUS41 KRNK 282327
TAFLWB
TAF
KLWB 282327Z 2900/2924 00000KT P6SM SCT120 BKN250
      TEMPO 2908/2912 3SM BR
     FM291400 VRB03KT P6SM BKN025
     FM291600 17005KT P6SM VCTS SCT050CB BKN090=



000
FTUS41 KRNK 282327
TAFDAN
TAF
KDAN 282327Z 2900/2924 36004KT P6SM VCTS SCT060CB BKN120
     FM290300 00000KT P6SM FEW080 BKN120
     FM290800 00000KT 3SM BR BKN003
     FM291400 17004KT P6SM SCT025
     FM292000 18006KT P6SM VCTS SCT050CB BKN120=



000
FTUS41 KRNK 282327
TAFLYH
TAF
KLYH 282327Z 2900/2924 14004KT P6SM SCT060 BKN100
     FM290300 00000KT P6SM FEW080 BKN150
     FM290800 00000KT 3SM BR BKN002
     FM291400 14004KT P6SM SCT025
     FM291900 16006KT P6SM VCTS SCT050CB BKN120=



000
FTUS41 KRNK 282327
TAFROA
TAF
KROA 282327Z 2900/2924 10005KT P6SM SCT060 BKN150
     FM290100 00000KT P6SM FEW080 BKN150
     FM291400 12004KT P6SM SCT030
     FM291700 14006KT P6SM VCTS SCT050CB BKN120=



000
FTUS41 KRNK 282327
TAFLWB
TAF
KLWB 282327Z 2900/2924 00000KT P6SM SCT120 BKN250
      TEMPO 2908/2912 3SM BR
     FM291400 VRB03KT P6SM BKN025
     FM291600 17005KT P6SM VCTS SCT050CB BKN090=



000
FTUS41 KRNK 282327
TAFLYH
TAF
KLYH 282327Z 2900/2924 14004KT P6SM SCT060 BKN100
     FM290300 00000KT P6SM FEW080 BKN150
     FM290800 00000KT 3SM BR BKN002
     FM291400 14004KT P6SM SCT025
     FM291900 16006KT P6SM VCTS SCT050CB BKN120=



000
FTUS41 KRNK 282327
TAFBLF
TAF
KBLF 282327Z 2900/2924 08006KT P6SM VCTS SCT060CB BKN090
     FM290200 VRB03KT P6SM SCT050 BKN120
      TEMPO 2908/2912 4SM BR
     FM291400 21005KT P6SM BKN025
     FM291600 19006KT P6SM VCTS SCT050CB BKN090=



000
FTUS41 KRNK 282327
TAFBLF
TAF
KBLF 282327Z 2900/2924 08006KT P6SM VCTS SCT060CB BKN090
     FM290200 VRB03KT P6SM SCT050 BKN120
      TEMPO 2908/2912 4SM BR
     FM291400 21005KT P6SM BKN025
     FM291600 19006KT P6SM VCTS SCT050CB BKN090=



000
FTUS41 KRNK 282327
TAFLYH
TAF
KLYH 282327Z 2900/2924 14004KT P6SM SCT060 BKN100
     FM290300 00000KT P6SM FEW080 BKN150
     FM290800 00000KT 3SM BR BKN002
     FM291400 14004KT P6SM SCT025
     FM291900 16006KT P6SM VCTS SCT050CB BKN120=



000
FTUS41 KRNK 282327
TAFDAN
TAF
KDAN 282327Z 2900/2924 36004KT P6SM VCTS SCT060CB BKN120
     FM290300 00000KT P6SM FEW080 BKN120
     FM290800 00000KT 3SM BR BKN003
     FM291400 17004KT P6SM SCT025
     FM292000 18006KT P6SM VCTS SCT050CB BKN120=



000
FTUS41 KRNK 282327
TAFBLF
TAF
KBLF 282327Z 2900/2924 08006KT P6SM VCTS SCT060CB BKN090
     FM290200 VRB03KT P6SM SCT050 BKN120
      TEMPO 2908/2912 4SM BR
     FM291400 21005KT P6SM BKN025
     FM291600 19006KT P6SM VCTS SCT050CB BKN090=



000
FTUS41 KRNK 282327
TAFDAN
TAF
KDAN 282327Z 2900/2924 36004KT P6SM VCTS SCT060CB BKN120
     FM290300 00000KT P6SM FEW080 BKN120
     FM290800 00000KT 3SM BR BKN003
     FM291400 17004KT P6SM SCT025
     FM292000 18006KT P6SM VCTS SCT050CB BKN120=



000
FTUS41 KRNK 282327
TAFLWB
TAF
KLWB 282327Z 2900/2924 00000KT P6SM SCT120 BKN250
      TEMPO 2908/2912 3SM BR
     FM291400 VRB03KT P6SM BKN025
     FM291600 17005KT P6SM VCTS SCT050CB BKN090=



000
FTUS41 KRNK 282327
TAFLYH
TAF
KLYH 282327Z 2900/2924 14004KT P6SM SCT060 BKN100
     FM290300 00000KT P6SM FEW080 BKN150
     FM290800 00000KT 3SM BR BKN002
     FM291400 14004KT P6SM SCT025
     FM291900 16006KT P6SM VCTS SCT050CB BKN120=



000
FTUS41 KRNK 282327
TAFROA
TAF
KROA 282327Z 2900/2924 10005KT P6SM SCT060 BKN150
     FM290100 00000KT P6SM FEW080 BKN150
     FM291400 12004KT P6SM SCT030
     FM291700 14006KT P6SM VCTS SCT050CB BKN120=



000
FTUS41 KRNK 282327
TAFLWB
TAF
KLWB 282327Z 2900/2924 00000KT P6SM SCT120 BKN250
      TEMPO 2908/2912 3SM BR
     FM291400 VRB03KT P6SM BKN025
     FM291600 17005KT P6SM VCTS SCT050CB BKN090=



000
FTUS41 KRNK 282327
TAFROA
TAF
KROA 282327Z 2900/2924 10005KT P6SM SCT060 BKN150
     FM290100 00000KT P6SM FEW080 BKN150
     FM291400 12004KT P6SM SCT030
     FM291700 14006KT P6SM VCTS SCT050CB BKN120=



000
FTUS41 KRNK 282327
TAFROA
TAF
KROA 282327Z 2900/2924 10005KT P6SM SCT060 BKN150
     FM290100 00000KT P6SM FEW080 BKN150
     FM291400 12004KT P6SM SCT030
     FM291700 14006KT P6SM VCTS SCT050CB BKN120=



000
FTUS41 KRNK 282137 AAA
TAFDAN
TAF AMD
KDAN 282137Z 2822/2918 20004KT P6SM SCT040 BKN250
      TEMPO 2822/2824 27008G21KT 3SM TSRA BKN035CB OVC060
     FM290000 VRB04KT P6SM VCTS BKN040CB BKN150
     FM290300 00000KT P6SM SCT060 BKN120
     FM290800 00000KT 3SM BR BKN003
     FM291400 17004KT P6SM SCT025=



000
FTUS41 KRNK 282137 AAA
TAFDAN
TAF AMD
KDAN 282137Z 2822/2918 20004KT P6SM SCT040 BKN250
      TEMPO 2822/2824 27008G21KT 3SM TSRA BKN035CB OVC060
     FM290000 VRB04KT P6SM VCTS BKN040CB BKN150
     FM290300 00000KT P6SM SCT060 BKN120
     FM290800 00000KT 3SM BR BKN003
     FM291400 17004KT P6SM SCT025=



000
FTUS41 KRNK 282028 AAA
TAFLYH
TAF AMD
KLYH 282028Z 2820/2918 04007KT P6SM VCTS BKN060CB OVC080
     FM290300 00000KT P6SM SCT060 BKN120
     FM290800 00000KT 3SM BR BKN002
     FM291400 17004KT P6SM SCT025=



000
FTUS41 KRNK 282028 AAA
TAFLYH
TAF AMD
KLYH 282028Z 2820/2918 04007KT P6SM VCTS BKN060CB OVC080
     FM290300 00000KT P6SM SCT060 BKN120
     FM290800 00000KT 3SM BR BKN002
     FM291400 17004KT P6SM SCT025=



000
FTUS41 KRNK 282028 AAA
TAFLYH
TAF AMD
KLYH 282028Z 2820/2918 04007KT P6SM VCTS BKN060CB OVC080
     FM290300 00000KT P6SM SCT060 BKN120
     FM290800 00000KT 3SM BR BKN002
     FM291400 17004KT P6SM SCT025=



000
FTUS41 KRNK 282028 AAA
TAFLYH
TAF AMD
KLYH 282028Z 2820/2918 04007KT P6SM VCTS BKN060CB OVC080
     FM290300 00000KT P6SM SCT060 BKN120
     FM290800 00000KT 3SM BR BKN002
     FM291400 17004KT P6SM SCT025=



000
FTUS41 KRNK 281730
TAFLWB
TAF
KLWB 281730Z 2818/2918 VRB03KT P6SM VCTS BKN035CB BKN150
     FM290100 00000KT P6SM SCT040 BKN120
      TEMPO 2908/2912 3SM BR
     FM291400 VRB03KT P6SM BKN025=



000
FTUS41 KRNK 281730
TAFROA
TAF
KROA 281730Z 2818/2918 VRB04KT P6SM VCTS BKN040CB BKN150
     FM290100 00000KT P6SM SCT060 BKN120
     FM291400 VRB04KT P6SM SCT025=



000
FTUS41 KRNK 281730
TAFDAN
TAF
KDAN 281730Z 2818/2918 VRB03KT P6SM SCT040 BKN250
     FM282000 VRB04KT P6SM VCTS BKN040CB BKN150
     FM290300 00000KT P6SM SCT060 BKN120
     FM290800 00000KT 3SM BR BKN003
     FM291400 17004KT P6SM SCT025=



000
FTUS41 KRNK 281730
TAFLYH
TAF
KLYH 281730Z 2818/2918 VRB04KT P6SM SCT040 SCT250
     FM282000 VRB04KT P6SM VCTS BKN040CB BKN150
     FM290300 00000KT P6SM SCT060 BKN120
     FM290800 00000KT 3SM BR BKN002
     FM291400 17004KT P6SM SCT025=



000
FTUS41 KRNK 281730
TAFBLF
TAF
KBLF 281730Z 2818/2918 VRB04KT P6SM VCTS BKN035CB BKN150
     FM290100 VRB03KT P6SM SCT040 BKN120
      TEMPO 2908/2912 5SM BR
     FM291400 VRB04KT P6SM BKN025=



000
FTUS41 KRNK 281730
TAFBLF
TAF
KBLF 281730Z 2818/2918 VRB04KT P6SM VCTS BKN035CB BKN150
     FM290100 VRB03KT P6SM SCT040 BKN120
      TEMPO 2908/2912 5SM BR
     FM291400 VRB04KT P6SM BKN025=



000
FTUS41 KRNK 281730
TAFROA
TAF
KROA 281730Z 2818/2918 VRB04KT P6SM VCTS BKN040CB BKN150
     FM290100 00000KT P6SM SCT060 BKN120
     FM291400 VRB04KT P6SM SCT025=



000
FTUS41 KRNK 281730
TAFLYH
TAF
KLYH 281730Z 2818/2918 VRB04KT P6SM SCT040 SCT250
     FM282000 VRB04KT P6SM VCTS BKN040CB BKN150
     FM290300 00000KT P6SM SCT060 BKN120
     FM290800 00000KT 3SM BR BKN002
     FM291400 17004KT P6SM SCT025=



000
FTUS41 KRNK 281730
TAFLWB
TAF
KLWB 281730Z 2818/2918 VRB03KT P6SM VCTS BKN035CB BKN150
     FM290100 00000KT P6SM SCT040 BKN120
      TEMPO 2908/2912 3SM BR
     FM291400 VRB03KT P6SM BKN025=



000
FTUS41 KRNK 281730
TAFDAN
TAF
KDAN 281730Z 2818/2918 VRB03KT P6SM SCT040 BKN250
     FM282000 VRB04KT P6SM VCTS BKN040CB BKN150
     FM290300 00000KT P6SM SCT060 BKN120
     FM290800 00000KT 3SM BR BKN003
     FM291400 17004KT P6SM SCT025=



000
FTUS41 KRNK 281138
TAFLWB
TAF
KLWB 281138Z 2812/2912 VRB03KT P6SM SCT040 BKN100
     FM282000 VRB04KT P6SM VCTS BKN045CB OVC100
     FM290200 00000KT P6SM OVC100
     FM290800 00000KT 2SM BR SCT003=



000
FTUS41 KRNK 281138
TAFBLF
TAF
KBLF 281138Z 2812/2912 26006KT P6SM SCT040 BKN100
     FM282000 29006KT P6SM VCTS BKN045CB OVC100
     FM290200 VRB03KT P6SM OVC100=



000
FTUS41 KRNK 281138
TAFROA
TAF
KROA 281138Z 2812/2912 VRB03KT P6SM SCT045 BKN250
     FM282000 14007KT P6SM VCTS BKN050CB BKN150
     FM290100 VRB03KT P6SM SCT070 BKN250=



000
FTUS41 KRNK 281138
TAFDAN
TAF
KDAN 281138Z 2812/2912 23004KT 6SM BR BKN005
      TEMPO 2812/2813 3SM BR OVC002
     FM281400 22006KT P6SM SCT050 SCT250
     FM282100 18005KT P6SM SCT060 BKN250
     FM290900 20003KT 4SM BR SCT003=



000
FTUS41 KRNK 281138
TAFLYH
TAF
KLYH 281138Z 2812/2912 00000KT 5SM BR SCT002
     FM281300 22005KT P6SM SCT045 BKN250
     FM282100 18005KT P6SM VCTS BKN050CB BKN150
     FM290100 VRB03KT P6SM SCT070 BKN250
     FM290800 00000KT 4SM BR SCT002=



000
FTUS41 KRNK 281138
TAFBLF
TAF
KBLF 281138Z 2812/2912 26006KT P6SM SCT040 BKN100
     FM282000 29006KT P6SM VCTS BKN045CB OVC100
     FM290200 VRB03KT P6SM OVC100=



000
FTUS41 KRNK 281138
TAFDAN
TAF
KDAN 281138Z 2812/2912 23004KT 6SM BR BKN005
      TEMPO 2812/2813 3SM BR OVC002
     FM281400 22006KT P6SM SCT050 SCT250
     FM282100 18005KT P6SM SCT060 BKN250
     FM290900 20003KT 4SM BR SCT003=



000
FTUS41 KRNK 281138
TAFROA
TAF
KROA 281138Z 2812/2912 VRB03KT P6SM SCT045 BKN250
     FM282000 14007KT P6SM VCTS BKN050CB BKN150
     FM290100 VRB03KT P6SM SCT070 BKN250=



000
FTUS41 KRNK 281138
TAFLYH
TAF
KLYH 281138Z 2812/2912 00000KT 5SM BR SCT002
     FM281300 22005KT P6SM SCT045 BKN250
     FM282100 18005KT P6SM VCTS BKN050CB BKN150
     FM290100 VRB03KT P6SM SCT070 BKN250
     FM290800 00000KT 4SM BR SCT002=



000
FTUS41 KRNK 281138
TAFLWB
TAF
KLWB 281138Z 2812/2912 VRB03KT P6SM SCT040 BKN100
     FM282000 VRB04KT P6SM VCTS BKN045CB OVC100
     FM290200 00000KT P6SM OVC100
     FM290800 00000KT 2SM BR SCT003=



000
FTUS41 KRNK 281138
TAFBLF
TAF
KBLF 281138Z 2812/2912 26006KT P6SM SCT040 BKN100
     FM282000 29006KT P6SM VCTS BKN045CB OVC100
     FM290200 VRB03KT P6SM OVC100=



000
FTUS41 KRNK 281138
TAFDAN
TAF
KDAN 281138Z 2812/2912 23004KT 6SM BR BKN005
      TEMPO 2812/2813 3SM BR OVC002
     FM281400 22006KT P6SM SCT050 SCT250
     FM282100 18005KT P6SM SCT060 BKN250
     FM290900 20003KT 4SM BR SCT003=



000
FTUS41 KRNK 281138
TAFROA
TAF
KROA 281138Z 2812/2912 VRB03KT P6SM SCT045 BKN250
     FM282000 14007KT P6SM VCTS BKN050CB BKN150
     FM290100 VRB03KT P6SM SCT070 BKN250=



000
FTUS41 KRNK 281138
TAFLYH
TAF
KLYH 281138Z 2812/2912 00000KT 5SM BR SCT002
     FM281300 22005KT P6SM SCT045 BKN250
     FM282100 18005KT P6SM VCTS BKN050CB BKN150
     FM290100 VRB03KT P6SM SCT070 BKN250
     FM290800 00000KT 4SM BR SCT002=



000
FTUS41 KRNK 281138
TAFLWB
TAF
KLWB 281138Z 2812/2912 VRB03KT P6SM SCT040 BKN100
     FM282000 VRB04KT P6SM VCTS BKN045CB OVC100
     FM290200 00000KT P6SM OVC100
     FM290800 00000KT 2SM BR SCT003=



000
FTUS41 KRNK 281138
TAFLWB
TAF
KLWB 281138Z 2812/2912 VRB03KT P6SM SCT040 BKN100
     FM282000 VRB04KT P6SM VCTS BKN045CB OVC100
     FM290200 00000KT P6SM OVC100
     FM290800 00000KT 2SM BR SCT003=



000
FTUS41 KRNK 281138
TAFLYH
TAF
KLYH 281138Z 2812/2912 00000KT 5SM BR SCT002
     FM281300 22005KT P6SM SCT045 BKN250
     FM282100 18005KT P6SM VCTS BKN050CB BKN150
     FM290100 VRB03KT P6SM SCT070 BKN250
     FM290800 00000KT 4SM BR SCT002=



000
FTUS41 KRNK 281138
TAFDAN
TAF
KDAN 281138Z 2812/2912 23004KT 6SM BR BKN005
      TEMPO 2812/2813 3SM BR OVC002
     FM281400 22006KT P6SM SCT050 SCT250
     FM282100 18005KT P6SM SCT060 BKN250
     FM290900 20003KT 4SM BR SCT003=



000
FTUS41 KRNK 281138
TAFROA
TAF
KROA 281138Z 2812/2912 VRB03KT P6SM SCT045 BKN250
     FM282000 14007KT P6SM VCTS BKN050CB BKN150
     FM290100 VRB03KT P6SM SCT070 BKN250=



000
FTUS41 KRNK 281138
TAFBLF
TAF
KBLF 281138Z 2812/2912 26006KT P6SM SCT040 BKN100
     FM282000 29006KT P6SM VCTS BKN045CB OVC100
     FM290200 VRB03KT P6SM OVC100=



000
FTUS41 KRNK 281008 AAA
TAFLYH
TAF AMD
KLYH 281008Z 2810/2906 00000KT 3SM BR SCT002
      TEMPO 2810/2812 1/2SM FG BKN002
     FM281300 22005KT P6SM SCT045 BKN250
     FM282100 18005KT P6SM VCTS BKN050CB BKN150
     FM290100 VRB03KT P6SM SCT070 BKN250=



000
FTUS41 KRNK 281008 AAA
TAFLYH
TAF AMD
KLYH 281008Z 2810/2906 00000KT 3SM BR SCT002
      TEMPO 2810/2812 1/2SM FG BKN002
     FM281300 22005KT P6SM SCT045 BKN250
     FM282100 18005KT P6SM VCTS BKN050CB BKN150
     FM290100 VRB03KT P6SM SCT070 BKN250=



000
FTUS41 KRNK 281008 AAA
TAFLYH
TAF AMD
KLYH 281008Z 2810/2906 00000KT 3SM BR SCT002
      TEMPO 2810/2812 1/2SM FG BKN002
     FM281300 22005KT P6SM SCT045 BKN250
     FM282100 18005KT P6SM VCTS BKN050CB BKN150
     FM290100 VRB03KT P6SM SCT070 BKN250=



000
FTUS41 KRNK 280540
TAFBLF
TAF
KBLF 280540Z 2806/2906 23004KT P6SM BKN100
     FM281500 26006KT P6SM SCT040 BKN100
     FM282000 29006KT P6SM VCTS BKN045CB OVC100
     FM290200 VRB03KT P6SM OVC100=



000
FTUS41 KRNK 280540
TAFROA
TAF
KROA 280540Z 2806/2906 VRB03KT P6SM SCT120
     FM281400 13004KT P6SM SCT045 BKN250
     FM282000 14007KT P6SM VCTS BKN050CB BKN150
     FM290100 VRB03KT P6SM SCT070 BKN250=



000
FTUS41 KRNK 280540
TAFLWB
TAF
KLWB 280540Z 2806/2906 00000KT P6SM SCT060 BKN120
      TEMPO 2808/2812 4SM BR
     FM281500 24003KT P6SM SCT050 BKN100 OVC250
     FM282000 VRB04KT P6SM VCTS BKN045CB OVC100
     FM290200 00000KT P6SM OVC100=



000
FTUS41 KRNK 280540
TAFLYH
TAF
KLYH 280540Z 2806/2906 00000KT P6SM SCT120
      TEMPO 2808/2811 4SM BR
     FM281400 22005KT P6SM SCT045 BKN250
     FM282100 18005KT P6SM VCTS BKN050CB BKN150
     FM290100 VRB03KT P6SM SCT070 BKN250=



000
FTUS41 KRNK 280540
TAFDAN
TAF
KDAN 280540Z 2806/2906 20004KT P6SM SCT120
     FM281400 22006KT P6SM SCT050 SCT250
     FM282100 18005KT P6SM SCT060 BKN250=



000
FTUS41 KRNK 280540
TAFROA
TAF
KROA 280540Z 2806/2906 VRB03KT P6SM SCT120
     FM281400 13004KT P6SM SCT045 BKN250
     FM282000 14007KT P6SM VCTS BKN050CB BKN150
     FM290100 VRB03KT P6SM SCT070 BKN250=



000
FTUS41 KRNK 280540
TAFLWB
TAF
KLWB 280540Z 2806/2906 00000KT P6SM SCT060 BKN120
      TEMPO 2808/2812 4SM BR
     FM281500 24003KT P6SM SCT050 BKN100 OVC250
     FM282000 VRB04KT P6SM VCTS BKN045CB OVC100
     FM290200 00000KT P6SM OVC100=



000
FTUS41 KRNK 280540
TAFLYH
TAF
KLYH 280540Z 2806/2906 00000KT P6SM SCT120
      TEMPO 2808/2811 4SM BR
     FM281400 22005KT P6SM SCT045 BKN250
     FM282100 18005KT P6SM VCTS BKN050CB BKN150
     FM290100 VRB03KT P6SM SCT070 BKN250=



000
FTUS41 KRNK 280540
TAFDAN
TAF
KDAN 280540Z 2806/2906 20004KT P6SM SCT120
     FM281400 22006KT P6SM SCT050 SCT250
     FM282100 18005KT P6SM SCT060 BKN250=



000
FTUS41 KRNK 280540
TAFBLF
TAF
KBLF 280540Z 2806/2906 23004KT P6SM BKN100
     FM281500 26006KT P6SM SCT040 BKN100
     FM282000 29006KT P6SM VCTS BKN045CB OVC100
     FM290200 VRB03KT P6SM OVC100=



000
FTUS41 KRNK 272338
TAFLWB
TAF
KLWB 272338Z 2800/2824 23004KT P6SM SCT050 SCT150 SCT250
     FM280400 00000KT P6SM SCT060 BKN120 BKN250
     FM281500 VRB03KT P6SM VCSH BKN050 BKN100 OVC250
     FM281700 VRB04KT P6SM VCTS BKN035CB OVC100=



000
FTUS41 KRNK 272338
TAFBLF
TAF
KBLF 272338Z 2800/2824 24006KT P6SM SCT050 SCT150 SCT250
     FM280400 23004KT P6SM SCT060 BKN120 BKN250
     FM281500 27006KT P6SM VCSH BKN050 BKN100 OVC250
     FM281700 VRB06KT P6SM VCTS BKN035CB OVC100=



000
FTUS41 KRNK 272338
TAFROA
TAF
KROA 272338Z 2800/2824 19008KT P6SM SCT060 SCT250
     FM280200 VRB04KT P6SM SCT250
     FM281400 13004KT P6SM BKN080 BKN250
     FM281800 14005KT P6SM VCTS BKN050CB BKN150=



000
FTUS41 KRNK 272338
TAFDAN
TAF
KDAN 272338Z 2800/2824 19006KT P6SM SCT060 SCT250
     FM280200 VRB04KT P6SM SCT250
     FM281400 17004KT P6SM SCT100 SCT250
     FM281800 18005KT P6SM SCT060 BKN250=



000
FTUS41 KRNK 272338
TAFLYH
TAF
KLYH 272338Z 2800/2824 20005KT P6SM SCT050 SCT250
     FM280200 00000KT P6SM SCT250
     FM281400 12005KT P6SM SCT080 BKN250
     FM281900 VRB05KT P6SM VCTS BKN050CB BKN150=



000
FTUS41 KRNK 272338
TAFBLF
TAF
KBLF 272338Z 2800/2824 24006KT P6SM SCT050 SCT150 SCT250
     FM280400 23004KT P6SM SCT060 BKN120 BKN250
     FM281500 27006KT P6SM VCSH BKN050 BKN100 OVC250
     FM281700 VRB06KT P6SM VCTS BKN035CB OVC100=



000
FTUS41 KRNK 272338
TAFROA
TAF
KROA 272338Z 2800/2824 19008KT P6SM SCT060 SCT250
     FM280200 VRB04KT P6SM SCT250
     FM281400 13004KT P6SM BKN080 BKN250
     FM281800 14005KT P6SM VCTS BKN050CB BKN150=



000
FTUS41 KRNK 272338
TAFDAN
TAF
KDAN 272338Z 2800/2824 19006KT P6SM SCT060 SCT250
     FM280200 VRB04KT P6SM SCT250
     FM281400 17004KT P6SM SCT100 SCT250
     FM281800 18005KT P6SM SCT060 BKN250=



000
FTUS41 KRNK 272338
TAFLWB
TAF
KLWB 272338Z 2800/2824 23004KT P6SM SCT050 SCT150 SCT250
     FM280400 00000KT P6SM SCT060 BKN120 BKN250
     FM281500 VRB03KT P6SM VCSH BKN050 BKN100 OVC250
     FM281700 VRB04KT P6SM VCTS BKN035CB OVC100=



000
FTUS41 KRNK 272338
TAFLWB
TAF
KLWB 272338Z 2800/2824 23004KT P6SM SCT050 SCT150 SCT250
     FM280400 00000KT P6SM SCT060 BKN120 BKN250
     FM281500 VRB03KT P6SM VCSH BKN050 BKN100 OVC250
     FM281700 VRB04KT P6SM VCTS BKN035CB OVC100=



000
FTUS41 KRNK 272338
TAFDAN
TAF
KDAN 272338Z 2800/2824 19006KT P6SM SCT060 SCT250
     FM280200 VRB04KT P6SM SCT250
     FM281400 17004KT P6SM SCT100 SCT250
     FM281800 18005KT P6SM SCT060 BKN250=



000
FTUS41 KRNK 272338
TAFLYH
TAF
KLYH 272338Z 2800/2824 20005KT P6SM SCT050 SCT250
     FM280200 00000KT P6SM SCT250
     FM281400 12005KT P6SM SCT080 BKN250
     FM281900 VRB05KT P6SM VCTS BKN050CB BKN150=



000
FTUS41 KRNK 272338
TAFROA
TAF
KROA 272338Z 2800/2824 19008KT P6SM SCT060 SCT250
     FM280200 VRB04KT P6SM SCT250
     FM281400 13004KT P6SM BKN080 BKN250
     FM281800 14005KT P6SM VCTS BKN050CB BKN150=



000
FTUS41 KRNK 272338
TAFBLF
TAF
KBLF 272338Z 2800/2824 24006KT P6SM SCT050 SCT150 SCT250
     FM280400 23004KT P6SM SCT060 BKN120 BKN250
     FM281500 27006KT P6SM VCSH BKN050 BKN100 OVC250
     FM281700 VRB06KT P6SM VCTS BKN035CB OVC100=



000
FTUS41 KRNK 272338
TAFLYH
TAF
KLYH 272338Z 2800/2824 20005KT P6SM SCT050 SCT250
     FM280200 00000KT P6SM SCT250
     FM281400 12005KT P6SM SCT080 BKN250
     FM281900 VRB05KT P6SM VCTS BKN050CB BKN150=



000
FTUS41 KRNK 271730
TAFLWB
TAF
KLWB 271730Z 2718/2818 25006KT P6SM SCT035 BKN060
     FM272100 23004KT P6SM SCT060 BKN250
     FM280600 00000KT 4SM BR SCT004 BKN090
     FM281300 VRB03KT P6SM SCT040
     FM281600 30004KT P6SM VCSH BKN040=



000
FTUS41 KRNK 271730
TAFLYH
TAF
KLYH 271730Z 2718/2818 21010KT P6SM SCT040 BKN250
      TEMPO 2719/2721 -SHRA BKN040
     FM272200 21007KT P6SM SCT050 BKN080
     FM280000 19003KT P6SM SCT120 BKN250
     FM280800 00000KT 4SM BR SCT008 BKN250
     FM281300 12005KT P6SM SCT050=



000
FTUS41 KRNK 271730
TAFROA
TAF
KROA 271730Z 2718/2818 22010KT P6SM VCSH SCT045
     FM272100 20008KT P6SM SCT050 BKN120
     FM280000 VRB03KT P6SM SCT120 BKN250
     FM281400 12005KT P6SM BKN040 BKN120=



000
FTUS41 KRNK 271730
TAFDAN
TAF
KDAN 271730Z 2718/2818 22010KT P6SM SCT030 BKN200
     FM280000 20003KT P6SM SCT080 BKN150
     FM281300 VRB03KT P6SM SCT050=



000
FTUS41 KRNK 271730
TAFBLF
TAF
KBLF 271730Z 2718/2818 26008KT P6SM BKN035
     FM272200 24007KT P6SM SCT050 BKN250
     FM280000 25003KT P6SM BKN080
     FM281300 26004KT P6SM SCT035 BKN060
     FM281600 31005KT P6SM VCSH BKN035=



000
FTUS41 KRNK 271730
TAFLYH
TAF
KLYH 271730Z 2718/2818 21010KT P6SM SCT040 BKN250
      TEMPO 2719/2721 -SHRA BKN040
     FM272200 21007KT P6SM SCT050 BKN080
     FM280000 19003KT P6SM SCT120 BKN250
     FM280800 00000KT 4SM BR SCT008 BKN250
     FM281300 12005KT P6SM SCT050=



000
FTUS41 KRNK 271730
TAFLWB
TAF
KLWB 271730Z 2718/2818 25006KT P6SM SCT035 BKN060
     FM272100 23004KT P6SM SCT060 BKN250
     FM280600 00000KT 4SM BR SCT004 BKN090
     FM281300 VRB03KT P6SM SCT040
     FM281600 30004KT P6SM VCSH BKN040=



000
FTUS41 KRNK 271730
TAFDAN
TAF
KDAN 271730Z 2718/2818 22010KT P6SM SCT030 BKN200
     FM280000 20003KT P6SM SCT080 BKN150
     FM281300 VRB03KT P6SM SCT050=



000
FTUS41 KRNK 271730
TAFROA
TAF
KROA 271730Z 2718/2818 22010KT P6SM VCSH SCT045
     FM272100 20008KT P6SM SCT050 BKN120
     FM280000 VRB03KT P6SM SCT120 BKN250
     FM281400 12005KT P6SM BKN040 BKN120=



000
FTUS41 KRNK 271730
TAFBLF
TAF
KBLF 271730Z 2718/2818 26008KT P6SM BKN035
     FM272200 24007KT P6SM SCT050 BKN250
     FM280000 25003KT P6SM BKN080
     FM281300 26004KT P6SM SCT035 BKN060
     FM281600 31005KT P6SM VCSH BKN035=



000
FTUS41 KRNK 271730
TAFBLF
TAF
KBLF 271730Z 2718/2818 26008KT P6SM BKN035
     FM272200 24007KT P6SM SCT050 BKN250
     FM280000 25003KT P6SM BKN080
     FM281300 26004KT P6SM SCT035 BKN060
     FM281600 31005KT P6SM VCSH BKN035=



000
FTUS41 KRNK 271730
TAFLYH
TAF
KLYH 271730Z 2718/2818 21010KT P6SM SCT040 BKN250
      TEMPO 2719/2721 -SHRA BKN040
     FM272200 21007KT P6SM SCT050 BKN080
     FM280000 19003KT P6SM SCT120 BKN250
     FM280800 00000KT 4SM BR SCT008 BKN250
     FM281300 12005KT P6SM SCT050=



000
FTUS41 KRNK 271730
TAFDAN
TAF
KDAN 271730Z 2718/2818 22010KT P6SM SCT030 BKN200
     FM280000 20003KT P6SM SCT080 BKN150
     FM281300 VRB03KT P6SM SCT050=



000
FTUS41 KRNK 271730
TAFROA
TAF
KROA 271730Z 2718/2818 22010KT P6SM VCSH SCT045
     FM272100 20008KT P6SM SCT050 BKN120
     FM280000 VRB03KT P6SM SCT120 BKN250
     FM281400 12005KT P6SM BKN040 BKN120=



000
FTUS41 KRNK 271730
TAFLWB
TAF
KLWB 271730Z 2718/2818 25006KT P6SM SCT035 BKN060
     FM272100 23004KT P6SM SCT060 BKN250
     FM280600 00000KT 4SM BR SCT004 BKN090
     FM281300 VRB03KT P6SM SCT040
     FM281600 30004KT P6SM VCSH BKN040=



000
FTUS41 KRNK 271730
TAFBLF
TAF
KBLF 271730Z 2718/2818 26008KT P6SM BKN035
     FM272200 24007KT P6SM SCT050 BKN250
     FM280000 25003KT P6SM BKN080
     FM281300 26004KT P6SM SCT035 BKN060
     FM281600 31005KT P6SM VCSH BKN035=



000
FTUS41 KRNK 271730
TAFLWB
TAF
KLWB 271730Z 2718/2818 25006KT P6SM SCT035 BKN060
     FM272100 23004KT P6SM SCT060 BKN250
     FM280600 00000KT 4SM BR SCT004 BKN090
     FM281300 VRB03KT P6SM SCT040
     FM281600 30004KT P6SM VCSH BKN040=



000
FTUS41 KRNK 271730
TAFROA
TAF
KROA 271730Z 2718/2818 22010KT P6SM VCSH SCT045
     FM272100 20008KT P6SM SCT050 BKN120
     FM280000 VRB03KT P6SM SCT120 BKN250
     FM281400 12005KT P6SM BKN040 BKN120=



000
FTUS41 KRNK 271730
TAFLYH
TAF
KLYH 271730Z 2718/2818 21010KT P6SM SCT040 BKN250
      TEMPO 2719/2721 -SHRA BKN040
     FM272200 21007KT P6SM SCT050 BKN080
     FM280000 19003KT P6SM SCT120 BKN250
     FM280800 00000KT 4SM BR SCT008 BKN250
     FM281300 12005KT P6SM SCT050=



000
FTUS41 KRNK 271730
TAFDAN
TAF
KDAN 271730Z 2718/2818 22010KT P6SM SCT030 BKN200
     FM280000 20003KT P6SM SCT080 BKN150
     FM281300 VRB03KT P6SM SCT050=



000
FTUS41 KRNK 271140
TAFBLF
TAF
KBLF 271140Z 2712/2812 24008KT P6SM BKN030 OVC120
     FM271500 26008KT P6SM SCT035 BKN060
     FM272200 24007KT P6SM SCT070 BKN250=



000
FTUS41 KRNK 271140
TAFROA
TAF
KROA 271140Z 2712/2812 22004KT P6SM FEW012 BKN150
     FM271700 17007KT P6SM VCSH SCT020 BKN045
     FM272000 18010KT P6SM SCT050 BKN120
     FM280000 20005KT P6SM SCT120 BKN250=



000
FTUS41 KRNK 271140
TAFDAN
TAF
KDAN 271140Z 2712/2812 21003KT P6SM SCT020 BKN150
     FM271600 22010KT P6SM SCT035 BKN060
      TEMPO 2718/2722 5SM -SHRA OVC040
     FM280000 20003KT P6SM SCT080 BKN150=



000
FTUS41 KRNK 271140
TAFBLF
TAF
KBLF 271140Z 2712/2812 24008KT P6SM BKN030 OVC120
     FM271500 26008KT P6SM SCT035 BKN060
     FM272200 24007KT P6SM SCT070 BKN250=



000
FTUS41 KRNK 271140
TAFLWB
TAF
KLWB 271140Z 2712/2812 00000KT P6SM SCT025 OVC040
      TEMPO 2712/2714 5SM -SHRA OVC025
     FM271500 25005KT P6SM SCT015 BKN060
     FM272100 23005KT P6SM SCT080 BKN250
     FM280600 00000KT 4SM BR SCT004=



000
FTUS41 KRNK 271140
TAFDAN
TAF
KDAN 271140Z 2712/2812 21003KT P6SM SCT020 BKN150
     FM271600 22010KT P6SM SCT035 BKN060
      TEMPO 2718/2722 5SM -SHRA OVC040
     FM280000 20003KT P6SM SCT080 BKN150=



000
FTUS41 KRNK 271140
TAFDAN
TAF
KDAN 271140Z 2712/2812 21003KT P6SM SCT020 BKN150
     FM271600 22010KT P6SM SCT035 BKN060
      TEMPO 2718/2722 5SM -SHRA OVC040
     FM280000 20003KT P6SM SCT080 BKN150=



000
FTUS41 KRNK 271140
TAFLYH
TAF
KLYH 271140Z 2712/2812 19008KT P6SM SCT020 BKN090
     FM271800 21010KT P6SM -SHRA SCT035 OVC060
     FM272100 21008KT P6SM BKN080
     FM280000 19003KT P6SM SCT120 BKN250
     FM280800 19003KT 4SM BR SCT008 BKN250=



000
FTUS41 KRNK 271140
TAFROA
TAF
KROA 271140Z 2712/2812 22004KT P6SM FEW012 BKN150
     FM271700 17007KT P6SM VCSH SCT020 BKN045
     FM272000 18010KT P6SM SCT050 BKN120
     FM280000 20005KT P6SM SCT120 BKN250=



000
FTUS41 KRNK 271140
TAFLYH
TAF
KLYH 271140Z 2712/2812 19008KT P6SM SCT020 BKN090
     FM271800 21010KT P6SM -SHRA SCT035 OVC060
     FM272100 21008KT P6SM BKN080
     FM280000 19003KT P6SM SCT120 BKN250
     FM280800 19003KT 4SM BR SCT008 BKN250=



000
FTUS41 KRNK 271140
TAFLWB
TAF
KLWB 271140Z 2712/2812 00000KT P6SM SCT025 OVC040
      TEMPO 2712/2714 5SM -SHRA OVC025
     FM271500 25005KT P6SM SCT015 BKN060
     FM272100 23005KT P6SM SCT080 BKN250
     FM280600 00000KT 4SM BR SCT004=



000
FTUS41 KRNK 271140
TAFROA
TAF
KROA 271140Z 2712/2812 22004KT P6SM FEW012 BKN150
     FM271700 17007KT P6SM VCSH SCT020 BKN045
     FM272000 18010KT P6SM SCT050 BKN120
     FM280000 20005KT P6SM SCT120 BKN250=



000
FTUS41 KRNK 271140
TAFDAN
TAF
KDAN 271140Z 2712/2812 21003KT P6SM SCT020 BKN150
     FM271600 22010KT P6SM SCT035 BKN060
      TEMPO 2718/2722 5SM -SHRA OVC040
     FM280000 20003KT P6SM SCT080 BKN150=



000
FTUS41 KRNK 271140
TAFBLF
TAF
KBLF 271140Z 2712/2812 24008KT P6SM BKN030 OVC120
     FM271500 26008KT P6SM SCT035 BKN060
     FM272200 24007KT P6SM SCT070 BKN250=



000
FTUS41 KRNK 271140
TAFLYH
TAF
KLYH 271140Z 2712/2812 19008KT P6SM SCT020 BKN090
     FM271800 21010KT P6SM -SHRA SCT035 OVC060
     FM272100 21008KT P6SM BKN080
     FM280000 19003KT P6SM SCT120 BKN250
     FM280800 19003KT 4SM BR SCT008 BKN250=



000
FTUS41 KRNK 271140
TAFBLF
TAF
KBLF 271140Z 2712/2812 24008KT P6SM BKN030 OVC120
     FM271500 26008KT P6SM SCT035 BKN060
     FM272200 24007KT P6SM SCT070 BKN250=



000
FTUS41 KRNK 271140
TAFLWB
TAF
KLWB 271140Z 2712/2812 00000KT P6SM SCT025 OVC040
      TEMPO 2712/2714 5SM -SHRA OVC025
     FM271500 25005KT P6SM SCT015 BKN060
     FM272100 23005KT P6SM SCT080 BKN250
     FM280600 00000KT 4SM BR SCT004=



000
FTUS41 KRNK 271140
TAFLYH
TAF
KLYH 271140Z 2712/2812 19008KT P6SM SCT020 BKN090
     FM271800 21010KT P6SM -SHRA SCT035 OVC060
     FM272100 21008KT P6SM BKN080
     FM280000 19003KT P6SM SCT120 BKN250
     FM280800 19003KT 4SM BR SCT008 BKN250=



000
FTUS41 KRNK 271140
TAFLWB
TAF
KLWB 271140Z 2712/2812 00000KT P6SM SCT025 OVC040
      TEMPO 2712/2714 5SM -SHRA OVC025
     FM271500 25005KT P6SM SCT015 BKN060
     FM272100 23005KT P6SM SCT080 BKN250
     FM280600 00000KT 4SM BR SCT004=



000
FTUS41 KRNK 271140
TAFROA
TAF
KROA 271140Z 2712/2812 22004KT P6SM FEW012 BKN150
     FM271700 17007KT P6SM VCSH SCT020 BKN045
     FM272000 18010KT P6SM SCT050 BKN120
     FM280000 20005KT P6SM SCT120 BKN250=



000
FTUS41 KRNK 270540
TAFLWB
TAF
KLWB 270540Z 2706/2806 VRB03KT P6SM OVC060
     FM270900 00000KT P6SM SCT025 OVC040
     FM271500 25005KT P6SM SCT015 BKN060
     FM272100 23005KT P6SM BKN080=



000
FTUS41 KRNK 270540
TAFBLF
TAF
KBLF 270540Z 2706/2806 20010KT P6SM -RA BKN050 OVC120
     FM270800 24007KT P6SM SCT050 OVC120
     FM271400 26008KT P6SM SCT025 BKN060
     FM272200 25007KT P6SM SCT070 BKN250=



000
FTUS41 KRNK 270540
TAFLYH
TAF
KLYH 270540Z 2706/2806 18006KT P6SM SCT017 BKN090
      TEMPO 2706/2710 5SM BR BKN017
     FM271400 21008KT P6SM -SHRA SCT020 OVC060
     FM272100 21009KT P6SM BKN080
     FM280000 18003KT P6SM SCT120 BKN250=



000
FTUS41 KRNK 270540
TAFLWB
TAF
KLWB 270540Z 2706/2806 VRB03KT P6SM OVC060
     FM270900 00000KT P6SM SCT025 OVC040
     FM271500 25005KT P6SM SCT015 BKN060
     FM272100 23005KT P6SM BKN080=



000
FTUS41 KRNK 270540
TAFDAN
TAF
KDAN 270540Z 2706/2806 20004KT P6SM SCT060 BKN130
      TEMPO 2706/2709 5SM -SHRA SCT018 OVC060
     FM271000 21003KT 5SM BR BKN018 OVC100
     FM271400 22007KT P6SM SCT035 BKN060
     FM280000 20003KT P6SM SCT080 BKN150=



000
FTUS41 KRNK 270540
TAFDAN
TAF
KDAN 270540Z 2706/2806 20004KT P6SM SCT060 BKN130
      TEMPO 2706/2709 5SM -SHRA SCT018 OVC060
     FM271000 21003KT 5SM BR BKN018 OVC100
     FM271400 22007KT P6SM SCT035 BKN060
     FM280000 20003KT P6SM SCT080 BKN150=



000
FTUS41 KRNK 270540
TAFBLF
TAF
KBLF 270540Z 2706/2806 20010KT P6SM -RA BKN050 OVC120
     FM270800 24007KT P6SM SCT050 OVC120
     FM271400 26008KT P6SM SCT025 BKN060
     FM272200 25007KT P6SM SCT070 BKN250=



000
FTUS41 KRNK 270540
TAFROA
TAF
KROA 270540Z 2706/2806 20005KT P6SM OVC080
      TEMPO 2706/2708 20010G20KT 4SM SHRA SCT025 OVC040
     FM271000 22004KT P6SM SCT015 OVC110
     FM271500 22008KT P6SM VCSH BKN020 OVC050
     FM272000 18010KT P6SM BKN120
     FM280000 20005KT P6SM SCT120 BKN250=



000
FTUS41 KRNK 270540
TAFLYH
TAF
KLYH 270540Z 2706/2806 18006KT P6SM SCT017 BKN090
      TEMPO 2706/2710 5SM BR BKN017
     FM271400 21008KT P6SM -SHRA SCT020 OVC060
     FM272100 21009KT P6SM BKN080
     FM280000 18003KT P6SM SCT120 BKN250=



000
FTUS41 KRNK 270540
TAFDAN
TAF
KDAN 270540Z 2706/2806 20004KT P6SM SCT060 BKN130
      TEMPO 2706/2709 5SM -SHRA SCT018 OVC060
     FM271000 21003KT 5SM BR BKN018 OVC100
     FM271400 22007KT P6SM SCT035 BKN060
     FM280000 20003KT P6SM SCT080 BKN150=



000
FTUS41 KRNK 270540
TAFLYH
TAF
KLYH 270540Z 2706/2806 18006KT P6SM SCT017 BKN090
      TEMPO 2706/2710 5SM BR BKN017
     FM271400 21008KT P6SM -SHRA SCT020 OVC060
     FM272100 21009KT P6SM BKN080
     FM280000 18003KT P6SM SCT120 BKN250=



000
FTUS41 KRNK 270540
TAFDAN
TAF
KDAN 270540Z 2706/2806 20004KT P6SM SCT060 BKN130
      TEMPO 2706/2709 5SM -SHRA SCT018 OVC060
     FM271000 21003KT 5SM BR BKN018 OVC100
     FM271400 22007KT P6SM SCT035 BKN060
     FM280000 20003KT P6SM SCT080 BKN150=



000
FTUS41 KRNK 270540
TAFROA
TAF
KROA 270540Z 2706/2806 20005KT P6SM OVC080
      TEMPO 2706/2708 20010G20KT 4SM SHRA SCT025 OVC040
     FM271000 22004KT P6SM SCT015 OVC110
     FM271500 22008KT P6SM VCSH BKN020 OVC050
     FM272000 18010KT P6SM BKN120
     FM280000 20005KT P6SM SCT120 BKN250=



000
FTUS41 KRNK 270540
TAFLWB
TAF
KLWB 270540Z 2706/2806 VRB03KT P6SM OVC060
     FM270900 00000KT P6SM SCT025 OVC040
     FM271500 25005KT P6SM SCT015 BKN060
     FM272100 23005KT P6SM BKN080=



000
FTUS41 KRNK 270540
TAFROA
TAF
KROA 270540Z 2706/2806 20005KT P6SM OVC080
      TEMPO 2706/2708 20010G20KT 4SM SHRA SCT025 OVC040
     FM271000 22004KT P6SM SCT015 OVC110
     FM271500 22008KT P6SM VCSH BKN020 OVC050
     FM272000 18010KT P6SM BKN120
     FM280000 20005KT P6SM SCT120 BKN250=



000
FTUS41 KRNK 270540
TAFBLF
TAF
KBLF 270540Z 2706/2806 20010KT P6SM -RA BKN050 OVC120
     FM270800 24007KT P6SM SCT050 OVC120
     FM271400 26008KT P6SM SCT025 BKN060
     FM272200 25007KT P6SM SCT070 BKN250=



000
FTUS41 KRNK 270135 AAA
TAFBLF
TAF AMD
KBLF 270135Z 2702/2724 19010KT P6SM VCSH SCT040 BKN080
     FM270500 20009KT P6SM BKN050 BKN120
     FM270900 23006KT 4SM -SHRA SCT015 OVC040
     FM271400 26008KT P6SM SCT025 BKN060=



000
FTUS41 KRNK 270135 AAA
TAFBLF
TAF AMD
KBLF 270135Z 2702/2724 19010KT P6SM VCSH SCT040 BKN080
     FM270500 20009KT P6SM BKN050 BKN120
     FM270900 23006KT 4SM -SHRA SCT015 OVC040
     FM271400 26008KT P6SM SCT025 BKN060=



000
FTUS41 KRNK 270135 AAA
TAFBLF
TAF AMD
KBLF 270135Z 2702/2724 19010KT P6SM VCSH SCT040 BKN080
     FM270500 20009KT P6SM BKN050 BKN120
     FM270900 23006KT 4SM -SHRA SCT015 OVC040
     FM271400 26008KT P6SM SCT025 BKN060=



000
FTUS41 KRNK 270135 AAA
TAFBLF
TAF AMD
KBLF 270135Z 2702/2724 19010KT P6SM VCSH SCT040 BKN080
     FM270500 20009KT P6SM BKN050 BKN120
     FM270900 23006KT 4SM -SHRA SCT015 OVC040
     FM271400 26008KT P6SM SCT025 BKN060=



000
FTUS41 KRNK 262329
TAFLYH
TAF
KLYH 262329Z 2700/2724 18006KT P6SM SCT060
     FM270700 19005KT 5SM BR BKN012 OVC020
     FM271400 21008KT P6SM -SHRA SCT020 OVC060
     FM272100 21009KT P6SM BKN080=



000
FTUS41 KRNK 262329
TAFBLF
TAF
KBLF 262329Z 2700/2724 19006KT P6SM VCSH SCT040 BKN080
     FM270500 20009KT P6SM BKN050 BKN120
     FM270900 23006KT 4SM -SHRA SCT015 OVC040
     FM271400 26008KT P6SM SCT025 BKN060=



000
FTUS41 KRNK 262329
TAFBLF
TAF
KBLF 262329Z 2700/2724 19006KT P6SM VCSH SCT040 BKN080
     FM270500 20009KT P6SM BKN050 BKN120
     FM270900 23006KT 4SM -SHRA SCT015 OVC040
     FM271400 26008KT P6SM SCT025 BKN060=



000
FTUS41 KRNK 262329
TAFLYH
TAF
KLYH 262329Z 2700/2724 18006KT P6SM SCT060
     FM270700 19005KT 5SM BR BKN012 OVC020
     FM271400 21008KT P6SM -SHRA SCT020 OVC060
     FM272100 21009KT P6SM BKN080=



000
FTUS41 KRNK 262329
TAFLWB
TAF
KLWB 262329Z 2700/2724 17004KT P6SM SCT040 BKN120
     FM270600 VRB03KT P6SM OVC060
     FM270900 00000KT 4SM -SHRA BR SCT025 OVC040
     FM271500 25005KT P6SM SCT015 BKN060
     FM272100 23005KT P6SM BKN080=



000
FTUS41 KRNK 262329
TAFDAN
TAF
KDAN 262329Z 2700/2724 20004KT P6SM SCT060
     FM270700 21003KT 5SM BR BKN018 OVC040
     FM271400 22007KT P6SM SCT035 BKN060=



000
FTUS41 KRNK 262329
TAFDAN
TAF
KDAN 262329Z 2700/2724 20004KT P6SM SCT060
     FM270700 21003KT 5SM BR BKN018 OVC040
     FM271400 22007KT P6SM SCT035 BKN060=



000
FTUS41 KRNK 262329
TAFROA
TAF
KROA 262329Z 2700/2724 18008KT P6SM SCT060
     FM270700 20003KT P6SM SCT025 OVC080
     FM271000 22004KT P6SM -SHRA SCT015 OVC060
     FM271500 22008KT P6SM VCSH BKN020 OVC050
     FM272000 18010KT P6SM BKN120=



000
FTUS41 KRNK 262329
TAFDAN
TAF
KDAN 262329Z 2700/2724 20004KT P6SM SCT060
     FM270700 21003KT 5SM BR BKN018 OVC040
     FM271400 22007KT P6SM SCT035 BKN060=



000
FTUS41 KRNK 262329
TAFROA
TAF
KROA 262329Z 2700/2724 18008KT P6SM SCT060
     FM270700 20003KT P6SM SCT025 OVC080
     FM271000 22004KT P6SM -SHRA SCT015 OVC060
     FM271500 22008KT P6SM VCSH BKN020 OVC050
     FM272000 18010KT P6SM BKN120=



000
FTUS41 KRNK 262329
TAFLWB
TAF
KLWB 262329Z 2700/2724 17004KT P6SM SCT040 BKN120
     FM270600 VRB03KT P6SM OVC060
     FM270900 00000KT 4SM -SHRA BR SCT025 OVC040
     FM271500 25005KT P6SM SCT015 BKN060
     FM272100 23005KT P6SM BKN080=



000
FTUS41 KRNK 262329
TAFROA
TAF
KROA 262329Z 2700/2724 18008KT P6SM SCT060
     FM270700 20003KT P6SM SCT025 OVC080
     FM271000 22004KT P6SM -SHRA SCT015 OVC060
     FM271500 22008KT P6SM VCSH BKN020 OVC050
     FM272000 18010KT P6SM BKN120=



000
FTUS41 KRNK 262329
TAFBLF
TAF
KBLF 262329Z 2700/2724 19006KT P6SM VCSH SCT040 BKN080
     FM270500 20009KT P6SM BKN050 BKN120
     FM270900 23006KT 4SM -SHRA SCT015 OVC040
     FM271400 26008KT P6SM SCT025 BKN060=



000
FTUS41 KRNK 262329
TAFLWB
TAF
KLWB 262329Z 2700/2724 17004KT P6SM SCT040 BKN120
     FM270600 VRB03KT P6SM OVC060
     FM270900 00000KT 4SM -SHRA BR SCT025 OVC040
     FM271500 25005KT P6SM SCT015 BKN060
     FM272100 23005KT P6SM BKN080=



000
FTUS41 KRNK 262329
TAFLYH
TAF
KLYH 262329Z 2700/2724 18006KT P6SM SCT060
     FM270700 19005KT 5SM BR BKN012 OVC020
     FM271400 21008KT P6SM -SHRA SCT020 OVC060
     FM272100 21009KT P6SM BKN080=



000
FTUS41 KRNK 262007 AAB
TAFLWB
TAF AMD
KLWB 262007Z 2620/2718 23005KT P6SM -SHRA SCT025 BKN035
      TEMPO 2620/2622 5SM -SHRA BKN025
     FM262300 20003KT P6SM VCSH BKN040 OVC100
     FM270800 00000KT 4SM SHRA BR SCT025 OVC040
     FM271400 25005KT P6SM SCT015 BKN035=



000
FTUS41 KRNK 262007 AAB
TAFLWB
TAF AMD
KLWB 262007Z 2620/2718 23005KT P6SM -SHRA SCT025 BKN035
      TEMPO 2620/2622 5SM -SHRA BKN025
     FM262300 20003KT P6SM VCSH BKN040 OVC100
     FM270800 00000KT 4SM SHRA BR SCT025 OVC040
     FM271400 25005KT P6SM SCT015 BKN035=



000
FTUS41 KRNK 262007 AAB
TAFLWB
TAF AMD
KLWB 262007Z 2620/2718 23005KT P6SM -SHRA SCT025 BKN035
      TEMPO 2620/2622 5SM -SHRA BKN025
     FM262300 20003KT P6SM VCSH BKN040 OVC100
     FM270800 00000KT 4SM SHRA BR SCT025 OVC040
     FM271400 25005KT P6SM SCT015 BKN035=



000
FTUS41 KRNK 261946 AAA
TAFLWB
TAF AMD
KLWB 261946Z 2620/2718 23009KT P6SM -TSRA SCT035 BKN045CB
      TEMPO 2620/2622 3SM TSRA BKN025CB
     FM262300 20003KT P6SM VCSH BKN050 OVC100
     FM270800 00000KT 4SM SHRA BR SCT025 OVC040
     FM271400 25005KT P6SM SCT015 BKN035=



000
FTUS41 KRNK 261946 AAA
TAFLWB
TAF AMD
KLWB 261946Z 2620/2718 23009KT P6SM -TSRA SCT035 BKN045CB
      TEMPO 2620/2622 3SM TSRA BKN025CB
     FM262300 20003KT P6SM VCSH BKN050 OVC100
     FM270800 00000KT 4SM SHRA BR SCT025 OVC040
     FM271400 25005KT P6SM SCT015 BKN035=



000
FTUS41 KRNK 261903 AAA
TAFROA
TAF AMD
KROA 261903Z 2619/2718 16011G22KT P6SM VCSH SCT045 BKN060
     FM270100 20003KT P6SM SCT050 OVC120
     FM270900 22004KT P6SM SCT025 OVC080
     FM271200 24005KT 5SM -SHRA BKN020 OVC050=



000
FTUS41 KRNK 261903 AAA
TAFLYH
TAF AMD
KLYH 261903Z 2619/2718 19011G20KT P6SM SCT040 BKN050
     FM270000 20004KT P6SM SCT060 BKN120
     FM270800 21002KT 5SM BR SCT007 BKN100
     FM271400 20007KT P6SM -SHRA SCT040 OVC080=



000
FTUS41 KRNK 261903 AAA
TAFLYH
TAF AMD
KLYH 261903Z 2619/2718 19011G20KT P6SM SCT040 BKN050
     FM270000 20004KT P6SM SCT060 BKN120
     FM270800 21002KT 5SM BR SCT007 BKN100
     FM271400 20007KT P6SM -SHRA SCT040 OVC080=



000
FTUS41 KRNK 261903 AAA
TAFROA
TAF AMD
KROA 261903Z 2619/2718 16011G22KT P6SM VCSH SCT045 BKN060
     FM270100 20003KT P6SM SCT050 OVC120
     FM270900 22004KT P6SM SCT025 OVC080
     FM271200 24005KT 5SM -SHRA BKN020 OVC050=



000
FTUS41 KRNK 261724
TAFLWB
TAF
KLWB 261724Z 2618/2718 20005KT P6SM VCSH SCT045 BKN100
      TEMPO 2620/2623 3SM TSRA BKN025CB
     FM270000 20003KT P6SM BKN050 OVC250
     FM270800 00000KT 4SM SHRA BR SCT025 OVC040
     FM271400 25005KT P6SM SCT015 BKN035=



000
FTUS41 KRNK 261724
TAFDAN
TAF
KDAN 261724Z 2618/2718 20010KT P6SM BKN050
     FM270100 20005KT P6SM SCT050 BKN120
     FM270900 21003KT 5SM BR SCT020 BKN100
     FM271400 23008KT P6SM SCT035 BKN080=



000
FTUS41 KRNK 261724
TAFLYH
TAF
KLYH 261724Z 2618/2718 19010KT P6SM SCT035 BKN045
     FM270000 20004KT P6SM SCT060 BKN120
     FM270800 21002KT 5SM BR SCT007 BKN100
     FM271400 20007KT P6SM -SHRA SCT040 OVC080=



000
FTUS41 KRNK 261724
TAFBLF
TAF
KBLF 261724Z 2618/2718 21005KT P6SM VCTS BKN035CB OVC050
      TEMPO 2618/2621 3SM TSRA BKN025CB
     FM270000 22006KT P6SM BKN050 OVC120
     FM270700 24004KT 4SM SHRA SCT015 OVC040
     FM271400 26008KT P6SM BKN025 BKN100=



000
FTUS41 KRNK 261724
TAFROA
TAF
KROA 261724Z 2618/2718 20008KT P6SM BKN045
     FM270100 20003KT P6SM SCT050 OVC120
     FM270900 22004KT P6SM SCT025 OVC080
     FM271200 24005KT 5SM -SHRA BKN020 OVC050=



000
FTUS41 KRNK 261724
TAFBLF
TAF
KBLF 261724Z 2618/2718 21005KT P6SM VCTS BKN035CB OVC050
      TEMPO 2618/2621 3SM TSRA BKN025CB
     FM270000 22006KT P6SM BKN050 OVC120
     FM270700 24004KT 4SM SHRA SCT015 OVC040
     FM271400 26008KT P6SM BKN025 BKN100=



000
FTUS41 KRNK 261724
TAFLWB
TAF
KLWB 261724Z 2618/2718 20005KT P6SM VCSH SCT045 BKN100
      TEMPO 2620/2623 3SM TSRA BKN025CB
     FM270000 20003KT P6SM BKN050 OVC250
     FM270800 00000KT 4SM SHRA BR SCT025 OVC040
     FM271400 25005KT P6SM SCT015 BKN035=



000
FTUS41 KRNK 261724
TAFROA
TAF
KROA 261724Z 2618/2718 20008KT P6SM BKN045
     FM270100 20003KT P6SM SCT050 OVC120
     FM270900 22004KT P6SM SCT025 OVC080
     FM271200 24005KT 5SM -SHRA BKN020 OVC050=



000
FTUS41 KRNK 261724
TAFDAN
TAF
KDAN 261724Z 2618/2718 20010KT P6SM BKN050
     FM270100 20005KT P6SM SCT050 BKN120
     FM270900 21003KT 5SM BR SCT020 BKN100
     FM271400 23008KT P6SM SCT035 BKN080=



000
FTUS41 KRNK 261724
TAFLYH
TAF
KLYH 261724Z 2618/2718 19010KT P6SM SCT035 BKN045
     FM270000 20004KT P6SM SCT060 BKN120
     FM270800 21002KT 5SM BR SCT007 BKN100
     FM271400 20007KT P6SM -SHRA SCT040 OVC080=



000
FTUS41 KRNK 261724
TAFLYH
TAF
KLYH 261724Z 2618/2718 19010KT P6SM SCT035 BKN045
     FM270000 20004KT P6SM SCT060 BKN120
     FM270800 21002KT 5SM BR SCT007 BKN100
     FM271400 20007KT P6SM -SHRA SCT040 OVC080=



000
FTUS41 KRNK 261724
TAFDAN
TAF
KDAN 261724Z 2618/2718 20010KT P6SM BKN050
     FM270100 20005KT P6SM SCT050 BKN120
     FM270900 21003KT 5SM BR SCT020 BKN100
     FM271400 23008KT P6SM SCT035 BKN080=



000
FTUS41 KRNK 261724
TAFLWB
TAF
KLWB 261724Z 2618/2718 20005KT P6SM VCSH SCT045 BKN100
      TEMPO 2620/2623 3SM TSRA BKN025CB
     FM270000 20003KT P6SM BKN050 OVC250
     FM270800 00000KT 4SM SHRA BR SCT025 OVC040
     FM271400 25005KT P6SM SCT015 BKN035=



000
FTUS41 KRNK 261724
TAFBLF
TAF
KBLF 261724Z 2618/2718 21005KT P6SM VCTS BKN035CB OVC050
      TEMPO 2618/2621 3SM TSRA BKN025CB
     FM270000 22006KT P6SM BKN050 OVC120
     FM270700 24004KT 4SM SHRA SCT015 OVC040
     FM271400 26008KT P6SM BKN025 BKN100=



000
FTUS41 KRNK 261724
TAFROA
TAF
KROA 261724Z 2618/2718 20008KT P6SM BKN045
     FM270100 20003KT P6SM SCT050 OVC120
     FM270900 22004KT P6SM SCT025 OVC080
     FM271200 24005KT 5SM -SHRA BKN020 OVC050=



000
FTUS41 KRNK 261458 AAA
TAFLYH
TAF AMD
KLYH 261458Z 2615/2712 19011KT P6SM BKN018
      TEMPO 2615/2616 SCT020 SCT040
     FM261600 21008G16KT P6SM SCT035 BKN060 BKN250
     FM270000 20005KT P6SM SCT060 BKN120=



000
FTUS41 KRNK 261458 AAA
TAFLYH
TAF AMD
KLYH 261458Z 2615/2712 19011KT P6SM BKN018
      TEMPO 2615/2616 SCT020 SCT040
     FM261600 21008G16KT P6SM SCT035 BKN060 BKN250
     FM270000 20005KT P6SM SCT060 BKN120=



000
FTUS41 KRNK 261130
TAFLYH
TAF
KLYH 261130Z 2612/2712 20004KT P6SM SCT025 BKN250
      TEMPO 2612/2616 BKN025
     FM261600 21008G16KT P6SM SCT035 BKN060 BKN250
     FM270000 20005KT P6SM SCT060 BKN120=



000
FTUS41 KRNK 261130
TAFDAN
TAF
KDAN 261130Z 2612/2712 20005KT P6SM SCT015 BKN050
      TEMPO 2612/2615 BKN015
     FM261500 21010G17KT P6SM SCT035 BKN050 BKN250
     FM270000 20005KT P6SM SCT060 BKN150=



000
FTUS41 KRNK 261130
TAFROA
TAF
KROA 261130Z 2612/2712 18006KT P6SM SCT020 BKN150
      TEMPO 2612/2616 BKN020
     FM261600 19008G16KT P6SM SCT035 BKN050 OVC250
     FM270000 20003KT P6SM SCT050 OVC120=



000
FTUS41 KRNK 261130
TAFBLF
TAF
KBLF 261130Z 2612/2712 17007KT 6SM -RA SCT025 BKN070 OVC110
     FM261500 19010G20KT P6SM VCTS SCT030 BKN040CB OVC150
      TEMPO 2618/2622 3SM TSRA BKN025CB
     FM270000 22006KT P6SM BKN050 OVC120
     FM270600 24004KT 4SM -RA SCT008 OVC040=



000
FTUS41 KRNK 261130
TAFLWB
TAF
KLWB 261130Z 2612/2712 VRB04KT 6SM HZ VCSH SCT025 BKN070 OVC110
     FM261500 29007KT P6SM VCTS SCT030 BKN040CB OVC150
      TEMPO 2619/2623 3SM TSRA BKN025CB
     FM270000 20003KT P6SM BKN050 OVC250
     FM270600 00000KT 4SM -RA SCT015 OVC040=



000
FTUS41 KRNK 261130
TAFDAN
TAF
KDAN 261130Z 2612/2712 20005KT P6SM SCT015 BKN050
      TEMPO 2612/2615 BKN015
     FM261500 21010G17KT P6SM SCT035 BKN050 BKN250
     FM270000 20005KT P6SM SCT060 BKN150=



000
FTUS41 KRNK 261130
TAFLYH
TAF
KLYH 261130Z 2612/2712 20004KT P6SM SCT025 BKN250
      TEMPO 2612/2616 BKN025
     FM261600 21008G16KT P6SM SCT035 BKN060 BKN250
     FM270000 20005KT P6SM SCT060 BKN120=



000
FTUS41 KRNK 261130
TAFLWB
TAF
KLWB 261130Z 2612/2712 VRB04KT 6SM HZ VCSH SCT025 BKN070 OVC110
     FM261500 29007KT P6SM VCTS SCT030 BKN040CB OVC150
      TEMPO 2619/2623 3SM TSRA BKN025CB
     FM270000 20003KT P6SM BKN050 OVC250
     FM270600 00000KT 4SM -RA SCT015 OVC040=



000
FTUS41 KRNK 261130
TAFROA
TAF
KROA 261130Z 2612/2712 18006KT P6SM SCT020 BKN150
      TEMPO 2612/2616 BKN020
     FM261600 19008G16KT P6SM SCT035 BKN050 OVC250
     FM270000 20003KT P6SM SCT050 OVC120=



000
FTUS41 KRNK 261130
TAFBLF
TAF
KBLF 261130Z 2612/2712 17007KT 6SM -RA SCT025 BKN070 OVC110
     FM261500 19010G20KT P6SM VCTS SCT030 BKN040CB OVC150
      TEMPO 2618/2622 3SM TSRA BKN025CB
     FM270000 22006KT P6SM BKN050 OVC120
     FM270600 24004KT 4SM -RA SCT008 OVC040=



000
FTUS41 KRNK 260524
TAFLYH
TAF
KLYH 260524Z 2606/2706 18003KT P6SM SKC
     FM261100 20004KT P6SM SCT030 BKN250
      TEMPO 2612/2616 BKN030
     FM261600 21008G16KT P6SM SCT035 BKN060 BKN250
     FM270000 20005KT P6SM SCT060 BKN120=



000
FTUS41 KRNK 260524
TAFBLF
TAF
KBLF 260524Z 2606/2706 16008G16KT P6SM SCT070 BKN250
     FM260900 17007KT P6SM VCSH SCT025 BKN070 OVC250
     FM261500 19010G20KT P6SM VCTS SCT030 BKN040CB OVC150
      TEMPO 2618/2622 3SM TSRA BKN025CB
     FM270000 22006KT P6SM BKN050 OVC120=



000
FTUS41 KRNK 260524
TAFDAN
TAF
KDAN 260524Z 2606/2706 20004KT P6SM SKC
     FM261100 20005KT P6SM SCT030 BKN250
     FM261500 21010G17KT P6SM SCT035 BKN050 BKN250
     FM270000 20005KT P6SM SCT060 BKN150=



000
FTUS41 KRNK 260524
TAFLWB
TAF
KLWB 260524Z 2606/2706 VRB04KT P6SM SCT070 SCT250
      TEMPO 2608/2611 5SM BR
     FM261100 VRB04KT 6SM HZ VCSH SCT025 BKN070
     FM261500 29007G16KT P6SM VCTS SCT030 BKN040CB OVC150
      TEMPO 2619/2623 3SM TSRA BKN025CB
     FM270000 20003KT P6SM BKN050 OVC250=



000
FTUS41 KRNK 260524
TAFROA
TAF
KROA 260524Z 2606/2706 16003KT P6SM SCT250
     FM261000 18006KT P6SM SCT030 BKN250
      TEMPO 2612/2616 BKN030
     FM261600 19008G16KT P6SM SCT035 BKN050 OVC250 PROB30 2620/2624
      5SM -TSRA BKN035CB
     FM270000 20003KT P6SM SCT050 OVC120=



000
FTUS41 KRNK 260524
TAFLWB
TAF
KLWB 260524Z 2606/2706 VRB04KT P6SM SCT070 SCT250
      TEMPO 2608/2611 5SM BR
     FM261100 VRB04KT 6SM HZ VCSH SCT025 BKN070
     FM261500 29007G16KT P6SM VCTS SCT030 BKN040CB OVC150
      TEMPO 2619/2623 3SM TSRA BKN025CB
     FM270000 20003KT P6SM BKN050 OVC250=



000
FTUS41 KRNK 260524
TAFLYH
TAF
KLYH 260524Z 2606/2706 18003KT P6SM SKC
     FM261100 20004KT P6SM SCT030 BKN250
      TEMPO 2612/2616 BKN030
     FM261600 21008G16KT P6SM SCT035 BKN060 BKN250
     FM270000 20005KT P6SM SCT060 BKN120=



000
FTUS41 KRNK 260524
TAFDAN
TAF
KDAN 260524Z 2606/2706 20004KT P6SM SKC
     FM261100 20005KT P6SM SCT030 BKN250
     FM261500 21010G17KT P6SM SCT035 BKN050 BKN250
     FM270000 20005KT P6SM SCT060 BKN150=



000
FTUS41 KRNK 260524
TAFDAN
TAF
KDAN 260524Z 2606/2706 20004KT P6SM SKC
     FM261100 20005KT P6SM SCT030 BKN250
     FM261500 21010G17KT P6SM SCT035 BKN050 BKN250
     FM270000 20005KT P6SM SCT060 BKN150=



000
FTUS41 KRNK 260524
TAFROA
TAF
KROA 260524Z 2606/2706 16003KT P6SM SCT250
     FM261000 18006KT P6SM SCT030 BKN250
      TEMPO 2612/2616 BKN030
     FM261600 19008G16KT P6SM SCT035 BKN050 OVC250 PROB30 2620/2624
      5SM -TSRA BKN035CB
     FM270000 20003KT P6SM SCT050 OVC120=



000
FTUS41 KRNK 260524
TAFLWB
TAF
KLWB 260524Z 2606/2706 VRB04KT P6SM SCT070 SCT250
      TEMPO 2608/2611 5SM BR
     FM261100 VRB04KT 6SM HZ VCSH SCT025 BKN070
     FM261500 29007G16KT P6SM VCTS SCT030 BKN040CB OVC150
      TEMPO 2619/2623 3SM TSRA BKN025CB
     FM270000 20003KT P6SM BKN050 OVC250=



000
FTUS41 KRNK 260524
TAFBLF
TAF
KBLF 260524Z 2606/2706 16008G16KT P6SM SCT070 BKN250
     FM260900 17007KT P6SM VCSH SCT025 BKN070 OVC250
     FM261500 19010G20KT P6SM VCTS SCT030 BKN040CB OVC150
      TEMPO 2618/2622 3SM TSRA BKN025CB
     FM270000 22006KT P6SM BKN050 OVC120=



000
FTUS41 KRNK 260524
TAFROA
TAF
KROA 260524Z 2606/2706 16003KT P6SM SCT250
     FM261000 18006KT P6SM SCT030 BKN250
      TEMPO 2612/2616 BKN030
     FM261600 19008G16KT P6SM SCT035 BKN050 OVC250 PROB30 2620/2624
      5SM -TSRA BKN035CB
     FM270000 20003KT P6SM SCT050 OVC120=



000
FTUS41 KRNK 260524
TAFBLF
TAF
KBLF 260524Z 2606/2706 16008G16KT P6SM SCT070 BKN250
     FM260900 17007KT P6SM VCSH SCT025 BKN070 OVC250
     FM261500 19010G20KT P6SM VCTS SCT030 BKN040CB OVC150
      TEMPO 2618/2622 3SM TSRA BKN025CB
     FM270000 22006KT P6SM BKN050 OVC120=



000
FTUS41 KRNK 260524
TAFLYH
TAF
KLYH 260524Z 2606/2706 18003KT P6SM SKC
     FM261100 20004KT P6SM SCT030 BKN250
      TEMPO 2612/2616 BKN030
     FM261600 21008G16KT P6SM SCT035 BKN060 BKN250
     FM270000 20005KT P6SM SCT060 BKN120=



    US Dept of Commerce
    National Oceanic and Atmospheric Administration
    National Weather Service
    1325 East West Highway
    Silver Spring, MD 20910
    Page Author: NWS Internet Services Team
Disclaimer
Information Quality
Credits
Glossary
Privacy Policy
Freedom of Information Act (FOIA)
About Us
Career Opportunities